Time;durP1;ratioP1;P1;durP2;ratioP2;P2;SDS_P1;SDS_P2;PMS_P1;PMS_P2;Temp;Humidity;BMP_temperature;BMP_pressure;BME280_temperature;BME280_humidity;BME280_pressure;Samples;Min_cycle;Max_cycle;Signal;HPM_P1;HPM_P2
2021/09/18 00:01:47;;;;;;;25.73;13.73;;;15.40;99.90;;;;;;5025496;28;20046;-78
2021/09/18 00:04:16;;;;;;;25.90;15.13;;;15.40;99.90;;;;;;4984674;28;20341;-79
2021/09/18 00:06:44;;;;;;;21.48;13.63;;;15.30;99.90;;;;;;5019356;28;20054;-79
2021/09/18 00:09:12;;;;;;;28.35;15.15;;;15.30;99.90;;;;;;4991321;28;20056;-78
2021/09/18 00:11:41;;;;;;;24.08;14.68;;;15.30;99.90;;;;;;4985997;28;20065;-79
2021/09/18 00:14:09;;;;;;;27.80;16.25;;;15.20;99.90;;;;;;4994589;28;20504;-81
2021/09/18 00:16:37;;;;;;;23.70;14.43;;;15.20;99.90;;;;;;5016068;28;20052;-79
2021/09/18 00:19:06;;;;;;;27.13;15.73;;;15.20;99.90;;;;;;5004566;28;20046;-77
2021/09/18 00:21:35;;;;;;;26.23;14.40;;;15.20;99.90;;;;;;5008212;28;20056;-79
2021/09/18 00:24:07;;;;;;;24.73;13.85;;;15.10;99.90;;;;;;5001959;28;20062;-79
2021/09/18 00:26:35;;;;;;;26.10;14.90;;;15.10;99.90;;;;;;4997805;28;20058;-78
2021/09/18 00:29:10;;;;;;;25.10;15.60;;;15.10;99.90;;;;;;5007174;28;20079;-79
2021/09/18 00:31:39;;;;;;;23.33;14.23;;;15.10;99.90;;;;;;5005140;28;20060;-80
2021/09/18 00:34:07;;;;;;;24.63;14.63;;;15.10;99.90;;;;;;5005097;28;20050;-79
2021/09/18 00:36:35;;;;;;;23.65;12.80;;;15.00;99.90;;;;;;4988968;28;20054;-79
2021/09/18 00:39:03;;;;;;;24.73;13.65;;;15.00;99.90;;;;;;5022380;28;20415;-80
2021/09/18 00:41:31;;;;;;;24.52;13.80;;;15.00;99.90;;;;;;4991346;28;20042;-80
2021/09/18 00:43:59;;;;;;;20.83;14.10;;;14.90;99.90;;;;;;4992931;28;20045;-78
2021/09/18 00:46:27;;;;;;;25.20;13.77;;;14.80;99.90;;;;;;5025363;28;20046;-79
2021/09/18 00:48:55;;;;;;;22.25;15.20;;;14.80;99.90;;;;;;5003238;28;20046;-79
2021/09/18 00:51:23;;;;;;;28.10;15.27;;;14.80;99.90;;;;;;5020955;28;20050;-79
2021/09/18 00:53:53;;;;;;;32.33;15.90;;;14.80;99.90;;;;;;5015105;28;20058;-78
2021/09/18 00:56:21;;;;;;;24.85;13.82;;;14.70;99.90;;;;;;5005886;28;20037;-79
2021/09/18 00:58:49;;;;;;;24.83;13.10;;;14.70;99.90;;;;;;4981120;28;20054;-78
2021/09/18 01:01:17;;;;;;;26.65;15.40;;;13.70;99.90;;;;;;5006615;28;20065;-78
2021/09/18 01:04:01;;;;;;;25.95;12.55;;;14.60;99.90;;;;;;5007662;28;20081;-79
2021/09/18 01:06:30;;;;;;;26.58;16.30;;;14.50;99.90;;;;;;5021974;28;20050;-79
2021/09/18 01:08:59;;;;;;;23.35;12.98;;;14.50;99.90;;;;;;5003130;28;20038;-79
2021/09/18 01:11:28;;;;;;;24.40;14.25;;;14.50;99.90;;;;;;5023030;28;20054;-80
2021/09/18 01:13:56;;;;;;;30.05;15.20;;;14.50;99.90;;;;;;5005147;28;20042;-79
2021/09/18 01:16:25;;;;;;;30.17;16.23;;;14.50;99.90;;;;;;5005674;28;20054;-79
2021/09/18 01:18:53;;;;;;;25.17;15.93;;;14.40;99.90;;;;;;5003328;28;20054;-78
2021/09/18 01:21:22;;;;;;;27.25;15.48;;;14.30;99.90;;;;;;4987890;28;20049;-78
2021/09/18 01:23:49;;;;;;;29.17;16.88;;;14.30;99.90;;;;;;4998321;28;20050;-78
2021/09/18 01:26:29;;;;;;;23.83;14.07;;;14.30;99.90;;;;;;5021356;28;20041;-80
2021/09/18 01:28:58;;;;;;;25.00;15.77;;;14.30;99.90;;;;;;5005676;28;20056;-78
2021/09/18 01:31:28;;;;;;;27.63;16.67;;;14.20;99.90;;;;;;4985198;28;20054;-79
2021/09/18 01:33:56;;;;;;;27.00;17.27;;;14.30;99.90;;;;;;5014816;28;20042;-78
2021/09/18 01:36:24;;;;;;;27.27;16.38;;;14.30;99.90;;;;;;5006974;28;20053;-79
2021/09/18 01:38:54;;;;;;;30.73;16.52;;;14.30;99.90;;;;;;5026141;28;20049;-78
2021/09/18 01:41:26;;;;;;;31.33;15.48;;;14.30;99.90;;;;;;5005119;28;20052;-80
2021/09/18 01:43:58;;;;;;;29.23;17.50;;;14.30;99.90;;;;;;4978081;28;20053;-80
2021/09/18 01:46:28;;;;;;;26.55;16.60;;;14.30;99.90;;;;;;5020135;28;20060;-79
2021/09/18 01:48:56;;;;;;;32.70;18.10;;;14.40;99.90;;;;;;5002454;28;20054;-79
2021/09/18 01:51:27;;;;;;;28.48;15.75;;;14.40;99.90;;;;;;5002496;28;20052;-80
2021/09/18 01:53:55;;;;;;;32.65;17.80;;;14.50;99.90;;;;;;5007020;28;20052;-80
2021/09/18 01:56:23;;;;;;;27.35;16.38;;;14.50;99.90;;;;;;4990876;28;20061;-79
2021/09/18 01:58:52;;;;;;;33.70;18.63;;;14.60;99.90;;;;;;5011884;28;20080;-80
2021/09/18 02:01:20;;;;;;;24.85;15.75;;;14.70;99.90;;;;;;4986290;28;20050;-79
2021/09/18 02:03:48;;;;;;;31.15;18.17;;;14.70;99.90;;;;;;5021863;28;20796;-79
2021/09/18 02:06:18;;;;;;;29.65;17.00;;;14.80;99.90;;;;;;5022516;28;20053;-78
2021/09/18 02:08:50;;;;;;;28.80;16.80;;;14.80;99.90;;;;;;5022153;28;20041;-78
2021/09/18 02:11:31;;;;;;;30.60;18.85;;;14.80;99.90;;;;;;4986485;28;20050;-79
2021/09/18 02:13:59;;;;;;;33.03;19.48;;;14.90;99.90;;;;;;5005012;28;20041;-79
2021/09/18 02:16:27;;;;;;;31.02;19.58;;;14.90;99.90;;;;;;5014870;28;20157;-79
2021/09/18 02:18:58;;;;;;;30.40;15.32;;;15.00;99.90;;;;;;4988864;28;20069;-79
2021/09/18 02:21:26;;;;;;;27.98;15.82;;;15.00;99.90;;;;;;4986332;28;20050;-80
2021/09/18 02:23:54;;;;;;;29.30;16.17;;;14.90;99.90;;;;;;5000806;28;20049;-79
2021/09/18 02:26:23;;;;;;;30.02;15.98;;;14.90;99.90;;;;;;5005670;28;20056;-78
2021/09/18 02:28:51;;;;;;;29.88;17.58;;;14.90;99.90;;;;;;5004768;28;20049;-80
2021/09/18 02:31:19;;;;;;;31.27;16.83;;;14.90;99.90;;;;;;5023340;28;20046;-80
2021/09/18 02:33:48;;;;;;;27.17;17.35;;;14.90;99.90;;;;;;5024031;28;20044;-78
2021/09/18 02:36:16;;;;;;;29.80;19.17;;;14.90;99.90;;;;;;5006166;28;20041;-79
2021/09/18 02:38:43;;;;;;;27.10;16.95;;;15.00;99.90;;;;;;5015374;28;20045;-79
2021/09/18 02:41:12;;;;;;;32.72;17.70;;;15.00;99.90;;;;;;5023730;28;20056;-79
2021/09/18 02:43:40;;;;;;;31.05;18.65;;;15.00;99.90;;;;;;4986793;28;20060;-79
2021/09/18 02:46:08;;;;;;;37.67;20.50;;;15.00;99.90;;;;;;5000104;28;20500;-79
2021/09/18 02:48:37;;;;;;;36.25;20.30;;;15.10;99.90;;;;;;5010140;28;20042;-78
2021/09/18 02:51:23;;;;;;;29.20;18.58;;;15.10;99.90;;;;;;5002135;28;20726;-80
2021/09/18 02:53:52;;;;;;;30.73;18.50;;;15.20;99.90;;;;;;5023110;28;20048;-79
2021/09/18 02:56:20;;;;;;;30.60;19.35;;;15.20;99.90;;;;;;5006560;28;20081;-80
2021/09/18 02:58:49;;;;;;;33.05;18.98;;;15.20;99.90;;;;;;4993428;28;20049;-80
2021/09/18 03:01:17;;;;;;;28.83;17.90;;;15.20;99.90;;;;;;5007120;28;20517;-80
2021/09/18 03:03:46;;;;;;;47.08;23.23;;;15.20;99.90;;;;;;4990631;28;20042;-79
2021/09/18 03:06:15;;;;;;;36.58;21.08;;;15.20;99.90;;;;;;4995620;28;20079;-79
2021/09/18 03:08:43;;;;;;;32.95;20.17;;;15.20;99.90;;;;;;5006778;28;20050;-79
2021/09/18 03:11:11;;;;;;;37.47;22.35;;;15.20;99.90;;;;;;5007608;28;20045;-78
2021/09/18 03:13:39;;;;;;;35.50;21.65;;;15.10;99.90;;;;;;5023968;28;20504;-79
2021/09/18 03:16:07;;;;;;;32.92;20.98;;;15.20;99.90;;;;;;5006361;28;20050;-79
2021/09/18 03:18:35;;;;;;;32.45;20.40;;;15.20;99.90;;;;;;5023501;28;20053;-79
2021/09/18 03:21:03;;;;;;;39.15;23.52;;;15.20;99.90;;;;;;4990049;28;20038;-79
2021/09/18 03:23:31;;;;;;;34.33;21.70;;;15.30;99.90;;;;;;5003081;28;20034;-79
2021/09/18 03:25:59;;;;;;;39.78;22.77;;;15.30;99.90;;;;;;4988099;28;20060;-79
2021/09/18 03:28:27;;;;;;;39.35;21.92;;;15.30;99.90;;;;;;4981677;28;20050;-78
2021/09/18 03:30:55;;;;;;;33.50;20.55;;;15.40;99.90;;;;;;5000286;28;20639;-79
2021/09/18 03:33:23;;;;;;;35.08;21.50;;;15.40;99.90;;;;;;5005232;28;20042;-79
2021/09/18 03:35:52;;;;;;;36.90;21.17;;;15.40;99.90;;;;;;5023530;28;20062;-80
2021/09/18 03:38:20;;;;;;;35.75;21.45;;;15.40;99.90;;;;;;5018650;28;20046;-78
2021/09/18 03:40:49;;;;;;;33.92;21.83;;;15.40;99.90;;;;;;5023929;28;20061;-82
2021/09/18 03:43:18;;;;;;;32.00;21.30;;;15.40;99.90;;;;;;5004444;28;20030;-79
2021/09/18 03:45:51;;;;;;;38.80;22.67;;;15.40;99.90;;;;;;5023291;28;20061;-79
2021/09/18 03:48:19;;;;;;;31.83;21.17;;;15.30;99.90;;;;;;5004485;28;20089;-79
2021/09/18 03:50:48;;;;;;;34.20;20.10;;;15.40;99.90;;;;;;4989080;28;20064;-79
2021/09/18 03:53:16;;;;;;;29.45;18.10;;;15.40;99.90;;;;;;5008066;28;20041;-79
2021/09/18 03:55:44;;;;;;;29.77;18.95;;;15.40;99.90;;;;;;5008015;28;20042;-78
2021/09/18 03:58:12;;;;;;;31.17;20.80;;;15.40;99.90;;;;;;4989671;28;20054;-82
2021/09/18 04:00:42;;;;;;;30.25;20.30;;;15.30;99.90;;;;;;5008030;28;20046;-79
2021/09/18 04:03:10;;;;;;;33.63;19.48;;;15.30;99.90;;;;;;5025621;28;20058;-81
2021/09/18 04:05:40;;;;;;;35.33;19.50;;;15.30;99.90;;;;;;5008339;28;20046;-79
2021/09/18 04:08:09;;;;;;;31.95;21.75;;;15.30;99.90;;;;;;5005031;28;20062;-79
2021/09/18 04:10:38;;;;;;;33.53;19.48;;;15.30;99.90;;;;;;5001322;28;20052;-79
2021/09/18 04:13:07;;;;;;;37.78;21.63;;;15.30;99.90;;;;;;5008097;28;20042;-78
2021/09/18 04:15:35;;;;;;;34.30;21.33;;;15.30;99.90;;;;;;4993198;28;20062;-80
2021/09/18 04:18:03;;;;;;;36.15;19.73;;;15.30;99.90;;;;;;5013664;28;20052;-79
2021/09/18 04:20:32;;;;;;;37.55;20.10;;;15.30;99.90;;;;;;5030302;28;20052;-80
2021/09/18 04:23:00;;;;;;;42.92;22.88;;;15.20;99.90;;;;;;5008924;28;20049;-81
2021/09/18 04:25:28;;;;;;;41.78;24.23;;;15.20;99.90;;;;;;5007512;28;20077;-79
2021/09/18 04:27:56;;;;;;;39.17;22.50;;;15.20;99.90;;;;;;5007473;28;20041;-79
2021/09/18 04:30:25;;;;;;;39.22;23.15;;;15.20;99.90;;;;;;5025640;28;20057;-79
2021/09/18 04:32:54;;;;;;;33.90;23.08;;;15.20;99.90;;;;;;5026262;28;20046;-79
2021/09/18 04:35:22;;;;;;;37.65;24.17;;;15.20;99.90;;;;;;5008700;28;20044;-79
2021/09/18 04:37:50;;;;;;;43.80;25.33;;;15.20;99.90;;;;;;4991220;28;20067;-79
2021/09/18 04:40:19;;;;;;;40.35;25.40;;;15.20;99.90;;;;;;5026826;28;20049;-80
2021/09/18 04:42:48;;;;;;;48.80;28.77;;;15.20;99.90;;;;;;5008932;28;20050;-79
2021/09/18 04:45:16;;;;;;;41.72;23.85;;;15.20;99.90;;;;;;5026759;28;20046;-78
2021/09/18 04:47:44;;;;;;;47.03;27.27;;;15.20;99.90;;;;;;5006250;28;20072;-79
2021/09/18 04:50:12;;;;;;;42.15;24.60;;;15.20;99.90;;;;;;5006276;28;20042;-79
2021/09/18 04:52:40;;;;;;;38.50;24.77;;;15.20;99.90;;;;;;5005971;28;20875;-79
2021/09/18 04:55:08;;;;;;;39.55;24.60;;;15.20;99.90;;;;;;5023706;28;20038;-79
2021/09/18 04:57:37;;;;;;;38.83;24.45;;;15.10;99.90;;;;;;4986017;28;20822;-79
2021/09/18 05:00:06;;;;;;;39.45;23.90;;;15.10;99.90;;;;;;5021304;28;20053;-79
2021/09/18 05:02:34;;;;;;;37.42;23.67;;;15.10;99.90;;;;;;5022852;28;20722;-79
2021/09/18 05:05:05;;;;;;;38.42;21.58;;;15.10;99.90;;;;;;4989001;28;20060;-80
2021/09/18 05:07:33;;;;;;;32.47;20.83;;;15.00;99.90;;;;;;4987152;28;20050;-80
2021/09/18 05:10:01;;;;;;;36.05;21.05;;;15.00;99.90;;;;;;5023938;28;20503;-79
2021/09/18 05:12:29;;;;;;;39.83;22.48;;;15.00;99.90;;;;;;5020802;28;20049;-79
2021/09/18 05:14:58;;;;;;;44.88;24.60;;;15.00;99.90;;;;;;4988022;28;20058;-79
2021/09/18 05:17:26;;;;;;;36.85;22.98;;;14.90;99.90;;;;;;4977108;28;20052;-79
2021/09/18 05:19:55;;;;;;;39.45;23.90;;;14.90;99.90;;;;;;5015549;28;20264;-79
2021/09/18 05:22:23;;;;;;;37.65;23.17;;;14.90;99.90;;;;;;5000100;28;20381;-78
2021/09/18 05:24:52;;;;;;;39.20;23.23;;;14.90;99.90;;;;;;5013513;28;20038;-80
2021/09/18 05:27:21;;;;;;;42.60;22.17;;;14.90;99.90;;;;;;5022433;28;20049;-79
2021/09/18 05:29:49;;;;;;;38.88;23.90;;;14.90;99.90;;;;;;4991216;28;20674;-79
2021/09/18 05:32:17;;;;;;;36.35;21.77;;;14.80;99.90;;;;;;4988395;28;20061;-78
2021/09/18 05:34:46;;;;;;;37.45;23.80;;;14.80;99.90;;;;;;5004293;28;20050;-78
2021/09/18 05:37:14;;;;;;;35.42;23.02;;;14.80;99.90;;;;;;5021532;28;20041;-77
2021/09/18 05:39:42;;;;;;;38.35;24.95;;;14.70;99.90;;;;;;4988564;28;20595;-80
2021/09/18 05:42:10;;;;;;;36.80;21.60;;;14.70;99.90;;;;;;4989413;28;20046;-79
2021/09/18 05:44:38;;;;;;;45.08;25.42;;;14.70;99.90;;;;;;5003981;28;20053;-78
2021/09/18 05:47:08;;;;;;;40.97;25.65;;;14.60;99.90;;;;;;5004900;28;20416;-79
2021/09/18 05:49:36;;;;;;;44.88;23.08;;;14.60;99.90;;;;;;5023132;28;20050;-79
2021/09/18 05:52:04;;;;;;;34.13;21.45;;;14.60;99.90;;;;;;5005674;28;20061;-80
2021/09/18 05:54:33;;;;;;;41.80;24.05;;;14.60;99.90;;;;;;5005060;28;20049;-79
2021/09/18 05:57:02;;;;;;;39.95;23.45;;;14.50;99.90;;;;;;5020904;28;20052;-79
2021/09/18 05:59:30;;;;;;;44.67;25.90;;;14.50;99.90;;;;;;5020632;28;20054;-79
2021/09/18 06:01:58;;;;;;;40.95;24.73;;;14.50;99.90;;;;;;5004223;28;20045;-79
2021/09/18 06:04:26;;;;;;;47.92;28.75;;;14.60;99.90;;;;;;4985985;28;20053;-79
2021/09/18 06:06:54;;;;;;;50.42;28.77;;;14.50;99.90;;;;;;5003458;28;20046;-79
2021/09/18 06:09:22;;;;;;;36.65;23.70;;;14.60;99.90;;;;;;4986126;28;20046;-80
2021/09/18 06:11:50;;;;;;;46.60;24.08;;;14.60;99.90;;;;;;5001797;28;20053;-79
2021/09/18 06:14:18;;;;;;;41.13;25.17;;;14.60;99.90;;;;;;5004662;28;20049;-79
2021/09/18 06:16:46;;;;;;;44.75;27.77;;;14.60;99.90;;;;;;4986844;28;20049;-81
2021/09/18 06:19:18;;;;;;;43.05;26.80;;;14.60;99.90;;;;;;5013971;28;20046;-79
2021/09/18 06:21:47;;;;;;;50.50;30.10;;;14.70;99.90;;;;;;5005313;28;20050;-77
2021/09/18 06:24:16;;;;;;;52.85;31.83;;;14.70;99.90;;;;;;5004250;28;20063;-78
2021/09/18 06:26:45;;;;;;;47.80;29.77;;;14.70;99.90;;;;;;5005087;28;20042;-79
2021/09/18 06:29:13;;;;;;;47.97;28.40;;;14.70;99.90;;;;;;4985611;28;20057;-78
2021/09/18 06:31:41;;;;;;;43.53;29.63;;;14.70;99.90;;;;;;5004613;28;20042;-78
2021/09/18 06:34:10;;;;;;;51.67;31.63;;;14.80;99.90;;;;;;5003867;28;20056;-79
2021/09/18 06:36:39;;;;;;;49.13;29.55;;;14.80;99.90;;;;;;5003836;28;20050;-79
2021/09/18 06:39:07;;;;;;;49.83;32.17;;;14.90;99.90;;;;;;5009088;28;20510;-79
2021/09/18 06:41:37;;;;;;;41.20;28.15;;;14.90;99.90;;;;;;5021315;28;20512;-79
2021/09/18 06:44:07;;;;;;;47.33;29.60;;;15.00;99.90;;;;;;5021762;28;20050;-78
2021/09/18 06:46:35;;;;;;;46.13;27.02;;;15.10;99.90;;;;;;5020755;28;20069;-79
2021/09/18 06:49:03;;;;;;;47.40;28.60;;;15.10;99.90;;;;;;5004089;28;20056;-79
2021/09/18 06:51:31;;;;;;;53.92;33.90;;;15.20;99.90;;;;;;5002255;28;20755;-78
2021/09/18 06:53:59;;;;;;;45.35;29.48;;;15.30;99.90;;;;;;5021640;28;20050;-79
2021/09/18 06:56:27;;;;;;;50.05;29.90;;;15.30;99.90;;;;;;5004267;28;20053;-78
2021/09/18 06:58:56;;;;;;;48.67;30.80;;;15.40;99.90;;;;;;4985905;28;20046;-79
2021/09/18 07:01:27;;;;;;;48.97;31.13;;;15.50;99.90;;;;;;4999358;28;20054;-80
2021/09/18 07:03:55;;;;;;;47.28;30.20;;;15.50;99.90;;;;;;5004597;28;20057;-79
2021/09/18 07:06:23;;;;;;;48.13;30.08;;;15.60;99.90;;;;;;4977345;28;20051;-79
2021/09/18 07:08:53;;;;;;;51.38;30.65;;;15.70;99.90;;;;;;5016396;28;20049;-79
2021/09/18 07:11:21;;;;;;;51.25;32.67;;;15.70;99.90;;;;;;4996106;28;20045;-79
2021/09/18 07:13:49;;;;;;;47.85;30.58;;;15.80;99.90;;;;;;4985481;28;20053;-80
2021/09/18 07:16:17;;;;;;;47.58;30.02;;;15.90;99.90;;;;;;5004335;28;20052;-79
2021/09/18 07:18:46;;;;;;;44.33;28.90;;;16.00;99.90;;;;;;4984323;28;20057;-79
2021/09/18 07:21:14;;;;;;;48.20;28.83;;;16.00;99.90;;;;;;5003890;28;20046;-81
2021/09/18 07:23:42;;;;;;;52.22;29.45;;;16.10;99.90;;;;;;4984502;28;20050;-80
2021/09/18 07:26:12;;;;;;;45.60;29.17;;;16.20;99.90;;;;;;5021683;28;20050;-80
2021/09/18 07:28:41;;;;;;;46.92;29.70;;;16.30;99.90;;;;;;4984069;28;20057;-81
2021/09/18 07:31:09;;;;;;;48.05;29.77;;;16.40;99.90;;;;;;5022586;28;20048;-80
2021/09/18 07:33:37;;;;;;;49.92;31.08;;;16.40;99.90;;;;;;5007635;28;20058;-79
2021/09/18 07:36:05;;;;;;;55.75;33.70;;;16.50;99.90;;;;;;4995113;28;20190;-80
2021/09/18 07:38:33;;;;;;;55.08;33.42;;;16.60;99.90;;;;;;4989534;28;20054;-80
2021/09/18 07:41:01;;;;;;;48.30;29.98;;;16.60;99.90;;;;;;4989958;28;20072;-79
2021/09/18 07:43:32;;;;;;;50.92;30.52;;;16.70;99.90;;;;;;4997930;28;20046;-79
2021/09/18 07:46:02;;;;;;;49.30;29.40;;;16.70;99.90;;;;;;4987508;28;20056;-79
2021/09/18 07:48:32;;;;;;;49.38;29.85;;;16.80;99.90;;;;;;4991785;28;20057;-80
2021/09/18 07:51:00;;;;;;;51.25;30.10;;;16.80;99.90;;;;;;4989432;28;20446;-79
2021/09/18 07:53:29;;;;;;;55.70;28.75;;;16.90;99.90;;;;;;5027752;28;20040;-79
2021/09/18 07:55:57;;;;;;;52.50;30.05;;;16.90;99.90;;;;;;5002993;28;20051;-80
2021/09/18 07:58:25;;;;;;;45.45;28.45;;;17.00;99.90;;;;;;5008262;28;20060;-80
2021/09/18 08:00:53;;;;;;;45.03;27.02;;;17.00;99.90;;;;;;5022812;28;20049;-79
2021/09/18 08:03:21;;;;;;;42.88;27.52;;;17.10;99.90;;;;;;4988144;28;20133;-81
2021/09/18 08:05:50;;;;;;;42.47;26.48;;;17.20;99.90;;;;;;5004811;28;20057;-79
2021/09/18 08:08:18;;;;;;;43.58;22.38;;;17.30;99.90;;;;;;5002921;28;20049;-82
2021/09/18 08:10:46;;;;;;;30.23;19.17;;;17.40;99.90;;;;;;5003191;28;20049;-80
2021/09/18 08:13:14;;;;;;;29.30;17.38;;;17.50;99.90;;;;;;4984240;28;20075;-80
2021/09/18 08:15:43;;;;;;;26.10;15.57;;;17.60;99.90;;;;;;5021104;28;20041;-80
2021/09/18 08:18:11;;;;;;;28.67;17.20;;;17.70;99.90;;;;;;4990013;28;20049;-80
2021/09/18 08:20:40;;;;;;;27.38;14.30;;;17.90;99.90;;;;;;5005006;28;20048;-79
2021/09/18 08:23:13;;;;;;;27.63;15.33;;;17.90;99.90;;;;;;5021352;28;20053;-79
2021/09/18 08:25:51;;;;;;;22.13;12.63;;;18.10;99.90;;;;;;5012056;28;20294;-80
2021/09/18 08:28:25;;;;;;;23.20;12.07;;;18.20;99.90;;;;;;4989246;28;20056;-80
2021/09/18 08:30:53;;;;;;;18.77;10.45;;;18.30;99.90;;;;;;5000531;28;20041;-81
2021/09/18 08:33:22;;;;;;;16.10;10.18;;;18.40;99.90;;;;;;5006085;28;20241;-79
2021/09/18 08:35:50;;;;;;;23.25;9.90;;;18.50;99.90;;;;;;5008360;28;20061;-81
2021/09/18 08:38:19;;;;;;;15.55;7.43;;;18.60;99.90;;;;;;4982466;28;20050;-79
2021/09/18 08:40:53;;;;;;;14.93;8.18;;;18.70;99.90;;;;;;4994044;28;20053;-80
2021/09/18 08:43:34;;;;;;;16.20;7.85;;;18.80;99.90;;;;;;5023809;28;20054;-80
2021/09/18 08:46:04;;;;;;;18.58;8.13;;;18.90;99.90;;;;;;5006867;28;20049;-80
2021/09/18 08:48:38;;;;;;;13.10;6.50;;;19.00;99.90;;;;;;4990591;28;20046;-80
2021/09/18 08:51:10;;;;;;;16.80;7.13;;;19.10;99.90;;;;;;4977252;28;20061;-80
2021/09/18 08:53:39;;;;;;;11.73;7.00;;;19.20;99.90;;;;;;4987837;28;20047;-80
2021/09/18 08:56:08;;;;;;;12.90;7.03;;;19.30;99.90;;;;;;4986510;28;20038;-80
2021/09/18 08:58:36;;;;;;;11.95;5.70;;;19.70;99.90;;;;;;5005071;28;20052;-80
2021/09/18 09:01:04;;;;;;;13.65;6.68;;;19.40;99.90;;;;;;5003327;28;20042;-80
2021/09/18 09:03:36;;;;;;;14.43;6.78;;;19.40;99.90;;;;;;4984470;28;20053;-83
2021/09/18 09:06:14;;;;;;;16.50;6.50;;;19.50;99.90;;;;;;5008059;28;20022;-83
2021/09/18 09:09:00;;;;;;;14.63;6.03;;;19.50;99.90;;;;;;5004004;28;20050;-81
2021/09/18 09:11:29;;;;;;;9.88;5.68;;;19.60;99.90;;;;;;5017839;28;20052;-82
2021/09/18 09:14:01;;;;;;;11.25;5.15;;;19.60;99.90;;;;;;5006468;28;20064;-82
2021/09/18 09:16:37;;;;;;;15.82;5.50;;;19.70;99.90;;;;;;5017961;28;20056;-83
2021/09/18 09:19:40;;;;;;;11.57;5.88;;;19.40;99.90;;;;;;5020224;28;20041;-83
2021/09/18 09:22:43;;;;;;;10.43;4.70;;;19.00;99.90;;;;;;4997896;28;20060;-83
2021/09/18 09:25:49;;;;;;;;;;;;;;;;;;;;;
2021/09/18 09:28:29;;;;;;;9.13;5.13;;;20.10;99.90;;;;;;5014560;28;20039;-81
2021/09/18 09:31:26;;;;;;;9.25;4.57;;;20.30;99.90;;;;;;4957166;28;20060;-82
2021/09/18 09:34:19;;;;;;;12.77;5.68;;;20.30;99.90;;;;;;5002695;28;20050;-82
2021/09/18 09:37:06;;;;;;;12.85;4.97;;;20.60;99.90;;;;;;5005813;28;20049;-81
2021/09/18 09:39:52;;;;;;;7.03;3.80;;;20.70;99.90;;;;;;5033132;28;20037;-81
2021/09/18 09:42:30;;;;;;;11.70;4.82;;;21.20;99.90;;;;;;5024201;28;20060;-80
2021/09/18 09:45:10;;;;;;;9.55;5.18;;;20.80;99.90;;;;;;5020383;28;20042;-82
2021/09/18 09:48:39;;;;;;;;;;;;;;;;;;;;;
2021/09/18 09:51:49;;;;;;;7.13;3.80;;;21.00;99.90;;;;;;5000113;28;20050;-83
2021/09/18 09:54:27;;;;;;;8.52;4.07;;;21.00;99.90;;;;;;5022279;28;20678;-83
2021/09/18 09:57:16;;;;;;;7.15;3.35;;;21.00;99.90;;;;;;5020417;28;20696;-84
2021/09/18 09:59:49;;;;;;;5.50;3.27;;;21.00;99.90;;;;;;5006852;28;20050;-82
2021/09/18 10:02:24;;;;;;;3.92;2.53;;;21.10;99.90;;;;;;4984060;28;20042;-82
2021/09/18 10:04:54;;;;;;;5.93;3.35;;;21.10;99.90;;;;;;4979844;28;20061;-82
2021/09/18 10:07:25;;;;;;;8.45;3.25;;;21.10;99.90;;;;;;4999705;28;20046;-81
2021/09/18 10:09:54;;;;;;;4.88;3.15;;;21.10;99.90;;;;;;5018261;28;20042;-82
2021/09/18 10:12:23;;;;;;;9.95;4.50;;;21.30;99.90;;;;;;5007036;28;20050;-82
2021/09/18 10:14:56;;;;;;;7.28;3.10;;;21.10;99.90;;;;;;5008292;28;20403;-82
2021/09/18 10:18:04;;;;;;;5.93;2.95;;;21.20;99.90;;;;;;4990353;28;20061;-83
2021/09/18 10:23:52;;;;;;;8.63;2.72;;;21.50;99.90;;;;;;5001705;28;20057;-82
2021/09/18 10:26:28;;;;;;;4.70;2.75;;;21.50;99.90;;;;;;5015496;28;20037;-82
2021/09/18 10:29:02;;;;;;;6.43;3.20;;;21.60;99.90;;;;;;5016136;28;20054;-81
2021/09/18 10:31:35;;;;;;;5.35;2.75;;;21.60;99.90;;;;;;5021847;28;20405;-82
2021/09/18 10:34:22;;;;;;;8.70;3.30;;;21.70;99.90;;;;;;5008726;28;20038;-83
2021/09/18 10:36:55;;;;;;;10.73;3.70;;;21.70;99.90;;;;;;5020950;28;20052;-83
2021/09/18 10:39:26;;;;;;;8.98;3.90;;;21.80;99.90;;;;;;5001333;28;20050;-84
2021/09/18 10:42:32;;;;;;;7.82;3.38;;;21.90;99.90;;;;;;5005359;28;20050;-83
2021/09/18 10:45:40;;;;;;;7.53;3.30;;;21.60;99.30;;;;;;5021640;28;20045;-84
2021/09/18 10:48:35;;;;;;;10.43;3.63;;;21.40;99.30;;;;;;5004054;28;20057;-82
2021/09/18 10:51:54;;;;;;;6.72;3.00;;;22.20;99.30;;;;;;4990141;28;20038;-83
2021/09/18 10:55:10;;;;;;;8.80;3.20;;;22.30;99.80;;;;;;5052360;27;1570186;-82
2021/09/18 10:58:33;;;;;;;10.10;4.43;;;22.40;99.80;;;;;;5186701;27;20399;-80
2021/09/18 11:01:22;;;;;;;11.53;3.97;;;22.60;98.90;;;;;;5003064;27;2047842;-82
2021/09/18 11:04:40;;;;;;;10.65;4.03;;;22.80;98.80;;;;;;5094281;27;20406;-82
2021/09/18 11:08:29;;;;;;;11.38;3.80;;;22.90;98.00;;;;;;5168841;27;20254;-88
2021/09/18 11:12:29;;;;;;;6.13;3.08;;;23.00;97.00;;;;;;5065658;27;20414;-94
2021/09/18 11:24:52;;;;;;;9.07;2.63;;;22.90;96.30;;;;;;4510233;23;15201490;-87
2021/09/18 11:28:13;;;;;;;6.95;3.58;;;24.10;95.60;;;;;;5201746;27;20381;-85
2021/09/18 11:31:09;;;;;;;9.30;3.45;;;24.20;96.10;;;;;;4997122;27;2737246;-87
2021/09/18 11:44:36;;;;;;;8.95;3.08;;;24.40;95.50;;;;;;5444788;22;18972840;-89
2021/09/18 11:58:49;;;;;;;7.43;2.65;;;24.60;96.10;;;;;;4916480;27;5202542;-86
2021/09/18 12:12:09;;;;;;;4.82;2.40;;;25.10;94.20;;;;;;4499745;27;18085017;-88
2021/09/18 12:25:40;;;;;;;7.97;2.90;;;25.00;93.90;;;;;;5180687;22;25790489;-91
2021/09/18 12:35:15;;;;;;;8.10;3.13;;;25.20;92.80;;;;;;6212429;23;20028;-91
2021/09/18 12:49:16;;;;;;;2.28;1.52;;;25.40;93.10;;;;;;5593383;22;15971742;-88
2021/09/18 12:52:53;;;;;;;4.07;1.90;;;26.20;91.30;;;;;;4575304;27;15816220;-89
2021/09/18 13:06:28;;;;;;;4.15;2.30;;;26.40;90.50;;;;;;6163417;22;2761878;-91
2021/09/18 13:20:28;;;;;;;4.57;2.25;;;25.90;90.50;;;;;;5621952;22;15050482;-92
2021/09/18 13:24:00;;;;;;;3.88;1.73;;;25.90;90.20;;;;;;5084353;28;20378;-89
2021/09/18 13:31:55;;;;;;;5.60;1.70;;;25.30;90.10;;;;;;4235550;27;23790405;-91
2021/09/18 13:36:38;;;;;;;3.20;1.85;;;26.20;90.10;;;;;;4976882;27;4421578;-87
2021/09/18 13:39:30;;;;;;;3.28;1.77;;;26.20;89.40;;;;;;4333941;27;22196200;-87
2021/09/18 13:42:40;;;;;;;3.08;1.60;;;26.00;89.00;;;;;;4551412;28;15106554;-86
2021/09/18 13:46:26;;;;;;;3.00;1.83;;;26.00;87.00;;;;;;4274363;22;24928010;-87
2021/09/18 13:59:50;;;;;;;5.05;2.28;;;26.00;88.40;;;;;;4505693;27;16398123;-89
2021/09/18 14:03:06;;;;;;;4.10;1.95;;;27.90;86.30;;;;;;4464180;27;17962660;-91
2021/09/18 14:06:33;;;;;;;7.20;2.05;;;27.30;85.40;;;;;;5157837;27;20175;-87
2021/09/18 14:20:45;;;;;;;6.43;2.15;;;27.00;83.90;;;;;;5747366;22;11784340;-84
2021/09/18 14:23:52;;;;;;;3.95;2.20;;;26.30;86.00;;;;;;5113255;27;20393;-85
2021/09/18 14:26:49;;;;;;;6.00;2.17;;;26.10;85.30;;;;;;5114532;28;20851;-88
2021/09/18 14:40:30;;;;;;;8.80;2.90;;;26.00;84.70;;;;;;4538000;27;15060750;-92
2021/09/18 14:47:52;;;;;;;7.28;2.33;;;25.30;86.10;;;;;;4941720;27;3747710;-86
2021/09/18 14:51:48;;;;;;;3.85;1.95;;;25.20;85.80;;;;;;5100258;28;20445;-87
2021/09/18 15:05:30;;;;;;;4.82;2.30;;;25.10;86.60;;;;;;6306989;22;20160;-89
2021/09/18 15:23:24;;;;;;;3.30;1.90;;;26.40;85.50;;;;;;4516210;27;16271106;-90
2021/09/18 15:37:56;;;;;;;6.53;2.00;;;27.10;83.60;;;;;;5541604;22;18294167;-89
2021/09/18 15:40:56;;;;;;;5.28;1.95;;;27.50;78.90;;;;;;6318846;22;20011;-88
2021/09/18 15:45:10;;;;;;;6.22;2.45;;;28.10;80.40;;;;;;5129188;27;20397;-84
2021/09/18 15:48:07;;;;;;;6.40;2.73;;;27.70;80.90;;;;;;4221880;27;25827066;-87
2021/09/18 16:01:36;;;;;;;2.58;1.40;;;27.30;81.50;;;;;;4634095;27;15059199;-91
2021/09/18 16:04:59;;;;;;;4.35;1.85;;;26.00;83.40;;;;;;5112979;22;20059;-86
2021/09/18 16:08:10;;;;;;;1.98;1.20;;;25.60;81.90;;;;;;5103051;27;20436;-90
2021/09/18 16:11:38;;;;;;;10.32;2.65;;;25.40;83.10;;;;;;5071856;28;20045;-90
2021/09/18 16:16:04;;;;;;;6.20;1.77;;;25.20;83.30;;;;;;5018740;27;3840281;-85
2021/09/18 16:41:59;;;;;;;5.95;2.15;;;25.10;83.10;;;;;;5988194;22;6694519;-89
2021/09/18 16:44:46;;;;;;;8.90;2.53;;;24.20;85.50;;;;;;5041591;27;2575001;-90
2021/09/18 16:47:52;;;;;;;11.38;2.00;;;23.80;85.70;;;;;;5102153;28;20121;-89
2021/09/18 16:51:00;;;;;;;;;;;;;;;;;;;;;
2021/09/18 17:10:29;;;;;;;9.33;2.60;;;23.30;87.00;;;;;;6105530;22;2554479;-86
2021/09/18 17:14:26;;;;;;;6.22;3.10;;;23.10;87.70;;;;;;6184939;22;20025;-87